createdAt,value
2022-08-23T00:02:24.767Z,3.75
2022-08-23T00:05:07.646Z,3.70
2022-08-23T00:07:39.207Z,4.43
2022-08-23T00:10:08.808Z,3.40
2022-08-23T00:12:35.304Z,3.40
2022-08-23T00:15:02.059Z,3.72
2022-08-23T00:17:34.740Z,3.72
2022-08-23T00:20:07.947Z,3.42
2022-08-23T00:22:34.890Z,3.63
2022-08-23T00:25:01.391Z,3.40
2022-08-23T00:27:28.497Z,3.22
2022-08-23T00:29:57.136Z,3.95
2022-08-23T00:32:35.901Z,3.38
2022-08-23T00:35:05.518Z,3.83
2022-08-23T00:37:32.412Z,3.80
2022-08-23T00:40:00.447Z,4.10
2022-08-23T00:43:08.614Z,4.40
2022-08-23T00:46:02.798Z,4.10
2022-08-23T00:48:30.409Z,3.70
2022-08-23T00:51:08.188Z,3.65
2022-08-23T00:53:41.982Z,3.45
2022-08-23T00:56:12.242Z,2.92
2022-08-23T00:58:39.147Z,3.45
2022-08-23T01:01:07.217Z,3.05
2022-08-23T01:03:38.404Z,2.97
2022-08-23T01:06:15.321Z,3.33
2022-08-23T01:08:47.772Z,3.15
2022-08-23T01:11:24.095Z,3.10
2022-08-23T01:13:56.931Z,3.30
2022-08-23T01:16:33.642Z,3.00
2022-08-23T01:19:03.212Z,2.90
2022-08-23T01:21:57.701Z,2.78
2022-08-23T01:24:56.153Z,3.10
2022-08-23T01:27:13.053Z,3.08
2022-08-23T01:29:41.277Z,3.00
2022-08-23T01:32:09.732Z,3.42
2022-08-23T01:34:36.908Z,3.35
2022-08-23T01:37:11.742Z,2.88
2022-08-23T01:39:38.708Z,2.63
2022-08-23T01:42:07.969Z,3.10
2022-08-23T01:44:35.292Z,2.95
2022-08-23T01:47:02.360Z,2.97
2022-08-23T01:49:29.230Z,3.05
2022-08-23T01:51:55.716Z,3.10
2022-08-23T01:54:22.448Z,4.03
2022-08-23T01:56:49.271Z,3.50
2022-08-23T01:59:16.014Z,3.58
2022-08-23T02:01:47.441Z,3.50
2022-08-23T02:04:14.332Z,3.55
2022-08-23T02:06:41.510Z,3.40
2022-08-23T02:09:17.153Z,3.40
2022-08-23T02:11:45.385Z,4.07
2022-08-23T02:14:16.660Z,3.78
2022-08-23T02:16:53.757Z,3.08
2022-08-23T02:19:31.087Z,2.95
2022-08-23T02:21:57.597Z,2.80
2022-08-23T02:24:24.938Z,3.58
2022-08-23T02:26:57.204Z,2.78
2022-08-23T02:29:29.473Z,2.92
2022-08-23T02:31:57.687Z,3.38
2022-08-23T02:34:26.115Z,2.78
2022-08-23T02:36:54.943Z,2.63
2022-08-23T02:39:22.300Z,3.20
2022-08-23T02:41:49.768Z,2.70
2022-08-23T02:44:17.033Z,3.00
2022-08-23T02:46:43.641Z,3.00
2022-08-23T02:49:10.453Z,3.03
2022-08-23T02:51:38.365Z,3.30
2022-08-23T02:54:05.661Z,3.03
2022-08-23T02:56:33.920Z,2.90
2022-08-23T02:59:00.470Z,3.08
2022-08-23T03:01:29.668Z,2.95
2022-08-23T03:04:02.659Z,3.00
2022-08-23T03:06:29.952Z,2.78
2022-08-23T03:08:57.348Z,3.47
2022-08-23T03:11:25.078Z,3.70
2022-08-23T03:13:54.509Z,3.10
2022-08-23T03:16:22.756Z,3.10
2022-08-23T03:18:49.437Z,3.10
2022-08-23T03:21:17.229Z,3.13
2022-08-23T03:23:44.073Z,3.00
2022-08-23T03:26:12.970Z,2.90
2022-08-23T03:28:41.220Z,2.90
2022-08-23T03:31:10.189Z,3.28
2022-08-23T03:33:46.810Z,2.90
2022-08-23T03:36:13.405Z,3.40
2022-08-23T03:38:41.156Z,3.03
2022-08-23T03:41:09.965Z,3.40
2022-08-23T03:43:37.568Z,3.20
2022-08-23T03:46:06.652Z,3.97
2022-08-23T03:48:37.464Z,3.35
2022-08-23T03:51:04.700Z,3.55
2022-08-23T03:53:31.175Z,2.90
2022-08-23T03:55:57.748Z,3.65
2022-08-23T03:58:25.555Z,2.83
2022-08-23T04:00:52.497Z,3.55
2022-08-23T04:03:19.133Z,3.63
2022-08-23T04:06:02.824Z,3.10
2022-08-23T04:08:33.854Z,3.03
2022-08-23T04:11:03.080Z,3.22
2022-08-23T04:13:29.656Z,3.17
2022-08-23T04:15:57.066Z,3.10
2022-08-23T04:18:23.920Z,3.20
2022-08-23T04:20:51.169Z,2.95
2022-08-23T04:23:21.050Z,3.63
2022-08-23T04:25:53.768Z,3.38
2022-08-23T04:28:21.301Z,4.07
2022-08-23T04:30:49.569Z,3.67
2022-08-23T04:33:18.208Z,3.65
2022-08-23T04:35:46.135Z,3.38
2022-08-23T04:38:18.177Z,3.45
2022-08-23T04:41:11.573Z,3.47
2022-08-23T04:43:39.565Z,3.60
2022-08-23T04:46:06.104Z,3.33
2022-08-23T04:48:35.487Z,3.55
2022-08-23T04:51:02.864Z,3.63
2022-08-23T04:53:35.207Z,3.88
2022-08-23T04:56:25.053Z,3.97
2022-08-23T04:58:53.004Z,3.38
2022-08-23T05:01:19.776Z,3.63
2022-08-23T05:03:47.436Z,3.70
2022-08-23T05:06:14.510Z,3.50
2022-08-23T05:08:41.034Z,3.60
2022-08-23T05:11:11.297Z,4.20
2022-08-23T05:13:41.404Z,3.80
2022-08-23T05:16:10.137Z,4.03
2022-08-23T05:18:42.816Z,3.90
2022-08-23T05:21:17.581Z,3.58
2022-08-23T05:23:50.972Z,4.13
2022-08-23T05:26:21.467Z,3.97
2022-08-23T05:28:50.371Z,3.85
2022-08-23T05:31:25.280Z,3.47
2022-08-23T05:33:54.368Z,4.35
2022-08-23T05:36:30.874Z,3.78
2022-08-23T05:38:57.458Z,3.53
2022-08-23T05:41:29.096Z,3.75
2022-08-23T05:44:05.016Z,4.15
2022-08-23T05:46:31.663Z,3.88
2022-08-23T05:49:18.511Z,3.80
2022-08-23T05:51:51.482Z,3.83
2022-08-23T05:54:18.917Z,4.22
2022-08-23T05:56:52.041Z,3.47
2022-08-23T05:59:20.263Z,3.47
2022-08-23T06:01:46.909Z,3.80
2022-08-23T06:04:18.901Z,4.00
2022-08-23T06:06:45.852Z,3.55
2022-08-23T06:09:15.886Z,3.08
2022-08-23T06:11:47.947Z,3.47
2022-08-23T06:16:46.502Z,3.65
2022-08-23T06:19:16.684Z,3.45
2022-08-23T06:21:51.166Z,3.22
2022-08-23T06:24:24.832Z,3.25
2022-08-23T06:27:10.020Z,3.40
2022-08-23T06:29:38.293Z,3.10
2022-08-23T06:32:23.345Z,3.60
2022-08-23T06:35:32.930Z,3.20
2022-08-23T06:38:03.894Z,3.00
2022-08-23T06:40:52.145Z,2.70
2022-08-23T06:43:29.319Z,2.65
2022-08-23T06:46:29.336Z,2.42
2022-08-23T06:48:57.796Z,2.65
2022-08-23T06:51:27.622Z,2.83
2022-08-23T06:54:02.861Z,2.67
2022-08-23T06:56:49.312Z,2.45
2022-08-23T06:59:20.533Z,2.60
2022-08-23T07:02:10.189Z,2.47
2022-08-23T07:05:06.083Z,2.88
2022-08-23T07:07:54.401Z,2.40
2022-08-23T07:10:21.427Z,2.35
2022-08-23T07:12:49.614Z,2.70
2022-08-23T07:15:19.429Z,2.28
2022-08-23T07:17:46.006Z,2.15
2022-08-23T07:20:13.652Z,1.90
2022-08-23T07:22:42.402Z,1.88
2022-08-23T07:25:09.605Z,1.92
2022-08-23T07:27:37.956Z,1.90
2022-08-23T07:30:07.644Z,1.90
2022-08-23T07:32:36.209Z,2.15
2022-08-23T07:35:13.605Z,1.80
2022-08-23T07:37:42.838Z,2.10
2022-08-23T07:40:11.378Z,1.83
2022-08-23T07:42:47.860Z,2.00
2022-08-23T07:45:15.022Z,2.00
2022-08-23T07:47:50.114Z,2.10
2022-08-23T07:50:17.682Z,1.90
2022-08-23T07:52:45.857Z,2.00
2022-08-23T07:55:12.343Z,1.98
2022-08-23T07:57:57.359Z,1.95
2022-08-23T08:00:27.488Z,1.90
2022-08-23T08:03:04.487Z,2.15
2022-08-23T08:05:45.453Z,2.20
2022-08-23T08:08:12.355Z,1.90
2022-08-23T08:10:41.485Z,1.65
2022-08-23T08:13:08.880Z,1.98
2022-08-23T08:15:35.925Z,1.80
2022-08-23T08:18:07.595Z,1.73
2022-08-23T08:20:54.048Z,2.47
2022-08-23T08:23:58.912Z,2.05
2022-08-23T08:26:35.217Z,1.92
2022-08-23T08:29:02.789Z,1.98
2022-08-23T08:31:29.390Z,1.88
2022-08-23T08:33:56.529Z,1.73
2022-08-23T08:36:39.677Z,1.90
2022-08-23T08:39:23.574Z,1.67
2022-08-23T08:42:11.966Z,1.52
2022-08-23T08:44:58.517Z,1.80
2022-08-23T08:47:43.605Z,1.77
2022-08-23T08:50:28.397Z,1.77
2022-08-23T08:53:06.247Z,2.13
2022-08-23T08:55:59.345Z,1.70
2022-08-23T08:58:48.401Z,1.65
2022-08-23T09:01:17.408Z,2.25
2022-08-23T09:03:46.236Z,1.70
2022-08-23T09:06:34.148Z,1.50
2022-08-23T09:09:30.339Z,1.60
2022-08-23T09:12:18.114Z,1.77
2022-08-23T09:15:19.892Z,1.70
2022-08-23T09:17:57.724Z,1.70
2022-08-23T09:20:32.968Z,1.83
2022-08-23T09:23:08.276Z,1.77
2022-08-23T09:25:37.276Z,1.75
2022-08-23T09:28:12.860Z,1.90
2022-08-23T09:30:53.951Z,1.73
2022-08-23T09:33:26.414Z,1.70
2022-08-23T09:36:06.245Z,1.58
2022-08-23T09:38:35.366Z,1.77
2022-08-23T09:41:19.270Z,1.67
2022-08-23T09:43:49.793Z,2.00
2022-08-23T09:46:31.002Z,1.75
2022-08-23T09:49:01.292Z,1.77
2022-08-23T09:51:35.984Z,1.60
2022-08-23T09:54:12.377Z,1.73
2022-08-23T09:56:42.496Z,1.80
2022-08-23T09:59:26.918Z,1.23
2022-08-23T10:01:59.684Z,1.77
2022-08-23T10:04:47.322Z,1.70
2022-08-23T10:07:26.496Z,1.63
2022-08-23T10:10:12.704Z,1.90
2022-08-23T10:12:39.680Z,1.92
2022-08-23T10:15:09.434Z,1.60
2022-08-23T10:18:04.254Z,1.90
2022-08-23T10:20:45.357Z,1.70
2022-08-23T10:23:30.129Z,1.45
2022-08-23T10:26:00.778Z,1.80
2022-08-23T10:29:05.361Z,1.73
2022-08-23T10:31:58.892Z,1.67
2022-08-23T10:34:56.114Z,1.65
2022-08-23T10:37:56.041Z,1.67
2022-08-23T10:40:32.183Z,1.60
2022-08-23T10:43:14.140Z,1.50
2022-08-23T10:45:46.397Z,1.83
2022-08-23T10:48:55.138Z,1.70
2022-08-23T10:51:31.742Z,2.00
2022-08-23T10:54:07.637Z,1.98
2022-08-23T10:56:35.786Z,1.70
2022-08-23T10:59:10.553Z,1.70
2022-08-23T11:01:50.343Z,1.90
2022-08-23T11:04:21.846Z,1.58
2022-08-23T11:07:27.884Z,1.73
2022-08-23T11:10:16.257Z,1.52
2022-08-23T11:12:58.651Z,2.13
2022-08-23T11:15:44.944Z,1.67
2022-08-23T11:18:34.334Z,2.05
2022-08-23T11:21:06.190Z,1.70
2022-08-23T11:23:58.351Z,1.58
2022-08-23T11:26:26.193Z,1.70
2022-08-23T11:29:22.345Z,1.90
2022-08-23T11:32:04.293Z,1.63
2022-08-23T11:34:58.617Z,1.50
2022-08-23T11:37:47.294Z,1.88
2022-08-23T11:40:18.170Z,1.77
2022-08-23T11:42:50.079Z,1.80
2022-08-23T11:45:44.513Z,1.67
2022-08-23T11:48:20.306Z,1.60
2022-08-23T11:51:11.917Z,1.45
2022-08-23T11:54:07.564Z,1.90
2022-08-23T11:57:04.193Z,1.50
2022-08-23T11:59:34.964Z,1.20
2022-08-23T12:02:32.122Z,1.80
2022-08-23T12:05:02.608Z,1.58
2022-08-23T12:07:47.555Z,1.67
2022-08-23T12:10:24.393Z,1.40
2022-08-23T12:13:22.334Z,1.80
2022-08-23T12:16:25.442Z,1.60
2022-08-23T12:19:00.141Z,1.70
2022-08-23T12:21:34.806Z,1.20
2022-08-23T12:24:16.300Z,1.65
2022-08-23T12:26:58.453Z,1.80
2022-08-23T12:32:20.016Z,1.40
2022-08-23T12:35:00.880Z,1.88
2022-08-23T12:37:49.072Z,1.73
2022-08-23T12:40:23.059Z,1.63
2022-08-23T12:42:51.284Z,1.90
2022-08-23T12:45:23.339Z,1.30
2022-08-23T12:48:02.382Z,1.50
2022-08-23T12:50:38.506Z,1.25
2022-08-23T12:53:12.692Z,1.30
2022-08-23T12:55:46.066Z,1.50
2022-08-23T12:58:15.245Z,1.35
2022-08-23T13:00:50.375Z,1.55
2022-08-23T13:03:23.611Z,1.40
2022-08-23T13:05:56.222Z,1.60
2022-08-23T13:08:47.048Z,1.60
2022-08-23T13:11:18.212Z,1.60
2022-08-23T13:13:44.881Z,1.50
2022-08-23T13:16:27.317Z,1.33
2022-08-23T13:18:56.090Z,1.85
2022-08-23T13:21:22.893Z,1.70
2022-08-23T13:23:54.476Z,1.30
2022-08-23T13:26:24.045Z,1.42
2022-08-23T13:29:07.672Z,1.50
2022-08-23T13:32:03.399Z,1.30
2022-08-23T13:34:53.309Z,1.30
2022-08-23T13:37:30.388Z,1.27
2022-08-23T13:40:00.733Z,1.35
2022-08-23T13:42:56.477Z,1.10
2022-08-23T13:45:32.802Z,1.48
2022-08-23T13:48:11.429Z,1.45
2022-08-23T13:50:39.085Z,1.60
2022-08-23T13:53:15.424Z,1.40
2022-08-23T13:55:58.476Z,1.38
2022-08-23T13:58:31.374Z,1.55
2022-08-23T14:01:00.662Z,1.48
2022-08-23T14:03:29.281Z,1.60
2022-08-23T14:05:55.966Z,1.50
2022-08-23T14:08:22.909Z,1.52
2022-08-23T14:10:50.177Z,1.30
2022-08-23T14:13:18.304Z,1.40
2022-08-23T14:18:33.276Z,1.23
2022-08-23T14:21:00.186Z,1.70
2022-08-23T14:25:56.279Z,1.38
2022-08-23T14:28:26.392Z,1.35
2022-08-23T14:30:57.048Z,1.10
2022-08-23T14:33:24.220Z,1.20
2022-08-23T14:35:52.304Z,0.95
2022-08-23T14:38:19.064Z,1.30
2022-08-23T14:40:52.868Z,1.27
2022-08-23T14:43:20.562Z,1.23
2022-08-23T14:45:47.553Z,1.73
2022-08-23T14:48:14.146Z,1.73
2022-08-23T14:50:41.843Z,1.27
2022-08-23T14:53:09.049Z,1.63
2022-08-23T14:55:36.059Z,1.33
2022-08-23T14:58:04.096Z,1.30
2022-08-23T15:00:32.728Z,1.60
2022-08-23T15:02:59.249Z,1.33
2022-08-23T15:05:25.967Z,1.48
2022-08-23T15:07:52.479Z,1.60
2022-08-23T15:15:53.033Z,1.40
2022-08-23T15:18:20.106Z,1.40
2022-08-23T15:20:46.932Z,1.35
2022-08-23T15:23:13.672Z,1.30
2022-08-23T15:25:42.849Z,1.38
2022-08-23T15:28:13.451Z,1.48
2022-08-23T15:33:07.417Z,1.48
2022-08-23T15:35:42.596Z,1.55
2022-08-23T15:38:13.724Z,1.50
2022-08-23T15:40:40.593Z,1.60
2022-08-23T15:43:07.062Z,1.33
2022-08-23T15:45:34.564Z,1.35
2022-08-23T15:48:04.359Z,1.58
2022-08-23T15:50:34.269Z,1.45
2022-08-23T15:53:04.151Z,1.35
2022-08-23T15:55:32.679Z,1.55
2022-08-23T15:57:59.705Z,1.35
2022-08-23T16:00:27.255Z,1.63
2022-08-23T16:03:20.135Z,1.60
2022-08-23T16:05:44.637Z,1.63
2022-08-23T16:08:24.896Z,1.60
2022-08-23T16:10:52.185Z,1.40
2022-08-23T16:13:19.524Z,1.67
2022-08-23T16:15:46.252Z,1.30
2022-08-23T16:18:13.045Z,1.27
2022-08-23T16:20:40.169Z,1.50
2022-08-23T16:23:07.205Z,1.38
2022-08-23T16:25:34.051Z,1.40
2022-08-23T16:28:00.695Z,1.30
2022-08-23T16:30:29.003Z,1.33
2022-08-23T16:32:56.774Z,1.50
2022-08-23T16:35:23.321Z,1.40
2022-08-23T16:37:49.867Z,1.85
2022-08-23T16:40:16.841Z,1.30
2022-08-23T16:42:43.913Z,1.55
2022-08-23T16:45:11.180Z,1.42
2022-08-23T16:47:41.282Z,1.42
2022-08-23T16:50:09.325Z,1.60
2022-08-23T16:52:36.018Z,1.70
2022-08-23T16:55:06.052Z,1.52
2022-08-23T16:57:32.680Z,1.70
2022-08-23T16:59:59.161Z,1.33
2022-08-23T17:02:37.432Z,1.50
2022-08-23T17:05:07.045Z,1.38
2022-08-23T17:07:34.333Z,1.80
2022-08-23T17:10:00.857Z,1.67
2022-08-23T17:12:27.822Z,1.55
2022-08-23T17:14:57.114Z,1.60
2022-08-23T17:17:24.484Z,1.60
2022-08-23T17:19:51.329Z,1.70
2022-08-23T17:22:17.976Z,1.55
2022-08-23T17:24:44.449Z,1.90
2022-08-23T17:27:15.823Z,1.75
2022-08-23T17:29:46.160Z,2.35
2022-08-23T17:32:13.457Z,2.05
2022-08-23T17:34:39.938Z,1.60
2022-08-23T17:37:18.165Z,1.70
2022-08-23T17:39:45.419Z,1.60
2022-08-23T17:42:11.994Z,1.58
2022-08-23T17:44:38.863Z,1.80
2022-08-23T17:47:09.757Z,1.67
2022-08-23T17:52:04.876Z,1.48
2022-08-23T17:54:31.325Z,1.70
2022-08-23T17:56:57.897Z,1.60
2022-08-23T17:59:24.409Z,1.80
2022-08-23T18:01:51.998Z,1.73
2022-08-23T18:04:18.591Z,1.63
2022-08-23T18:06:45.741Z,1.75
2022-08-23T18:09:12.806Z,3.38
2022-08-23T18:11:39.355Z,1.77
2022-08-23T18:14:06.190Z,2.20
2022-08-23T18:16:35.606Z,1.50
2022-08-23T18:21:30.971Z,2.05
2022-08-23T18:23:58.184Z,1.85
2022-08-23T18:26:44.101Z,2.22
2022-08-23T18:29:12.141Z,1.75
2022-08-23T18:31:41.068Z,1.90
2022-08-23T18:34:08.012Z,2.55
2022-08-23T18:36:35.292Z,1.85
2022-08-23T18:39:02.345Z,2.10
2022-08-23T18:41:28.865Z,2.88
2022-08-23T18:43:55.412Z,2.30
2022-08-23T18:46:22.005Z,2.10
2022-08-23T18:48:53.399Z,2.00
2022-08-23T18:51:22.189Z,2.17
2022-08-23T18:53:48.755Z,2.40
2022-08-23T18:56:15.265Z,2.15
2022-08-23T18:58:41.713Z,1.85
2022-08-23T19:01:28.909Z,1.90
2022-08-23T19:03:57.973Z,1.90
2022-08-23T19:06:24.489Z,2.13
2022-08-23T19:08:51.745Z,2.47
2022-08-23T19:11:19.977Z,2.00
2022-08-23T19:13:47.512Z,2.08
2022-08-23T19:16:15.527Z,2.10
2022-08-23T19:18:44.778Z,2.00
2022-08-23T19:21:11.897Z,2.20
2022-08-23T19:23:38.465Z,2.03
2022-08-23T19:26:09.565Z,2.13
2022-08-23T19:28:36.533Z,1.90
2022-08-23T19:31:03.297Z,2.00
2022-08-23T19:33:30.226Z,2.53
2022-08-23T19:35:57.968Z,1.70
2022-08-23T19:38:27.612Z,2.30
2022-08-23T19:40:55.130Z,2.05
2022-08-23T19:43:21.946Z,2.67
2022-08-23T19:45:48.528Z,2.30
2022-08-23T19:48:15.036Z,2.25
2022-08-23T19:50:41.891Z,2.10
2022-08-23T19:53:08.672Z,2.17
2022-08-23T19:55:39.032Z,2.30
2022-08-23T19:58:06.079Z,2.05
2022-08-23T20:00:34.143Z,2.10
2022-08-23T20:03:01.142Z,1.85
2022-08-23T20:05:27.846Z,2.55
2022-08-23T20:07:54.876Z,2.15
2022-08-23T20:10:21.634Z,2.40
2022-08-23T20:12:48.114Z,2.10
2022-08-23T20:15:14.708Z,2.38
2022-08-23T20:17:41.510Z,2.63
2022-08-23T20:20:10.476Z,2.25
2022-08-23T20:22:55.623Z,2.20
2022-08-23T20:25:22.245Z,2.28
2022-08-23T20:27:48.801Z,2.08
2022-08-23T20:30:15.340Z,2.55
2022-08-23T20:32:42.544Z,2.20
2022-08-23T20:35:11.096Z,2.20
2022-08-23T20:37:38.947Z,3.30
2022-08-23T20:40:07.536Z,2.97
2022-08-23T20:42:34.038Z,2.60
2022-08-23T20:45:00.490Z,2.58
2022-08-23T20:47:27.056Z,2.40
2022-08-23T20:49:53.665Z,2.53
2022-08-23T20:52:20.172Z,2.50
2022-08-23T20:54:46.705Z,2.25
2022-08-23T20:57:13.362Z,2.92
2022-08-23T20:59:44.235Z,2.70
2022-08-23T21:04:37.900Z,2.50
2022-08-23T21:07:07.644Z,2.50
2022-08-23T21:09:34.277Z,2.42
2022-08-23T21:12:00.765Z,3.00
2022-08-23T21:14:27.253Z,2.42
2022-08-23T21:16:53.709Z,2.60
2022-08-23T21:19:20.356Z,2.28
2022-08-23T21:21:46.982Z,2.53
2022-08-23T21:24:14.065Z,2.30
2022-08-23T21:26:41.616Z,3.50
2022-08-23T21:29:09.425Z,2.40
2022-08-23T21:31:36.813Z,2.47
2022-08-23T21:34:03.845Z,2.35
2022-08-23T21:36:30.588Z,2.40
2022-08-23T21:38:57.189Z,2.90
2022-08-23T21:41:33.689Z,2.60
2022-08-23T21:44:01.487Z,2.50
2022-08-23T21:46:28.206Z,2.63
2022-08-23T21:48:55.117Z,2.90
2022-08-23T21:51:21.884Z,2.55
2022-08-23T21:53:48.497Z,2.50
2022-08-23T21:56:14.986Z,2.33
2022-08-23T21:58:41.447Z,2.80
2022-08-23T22:01:09.021Z,2.95
2022-08-23T22:03:36.130Z,2.97
2022-08-23T22:06:03.353Z,3.15
2022-08-23T22:08:30.041Z,2.67
2022-08-23T22:10:57.323Z,3.40
2022-08-23T22:13:28.546Z,3.20
2022-08-23T22:15:55.186Z,2.95
2022-08-23T22:18:21.784Z,2.75
2022-08-23T22:20:48.365Z,2.97
2022-08-23T22:23:14.857Z,2.78
2022-08-23T22:25:41.367Z,3.10
2022-08-23T22:28:08.044Z,2.75
2022-08-23T22:30:34.572Z,2.92
2022-08-23T22:33:01.166Z,2.97
2022-08-23T22:35:27.688Z,2.70
2022-08-23T22:38:12.738Z,3.13
2022-08-23T22:40:40.683Z,2.80
2022-08-23T22:43:07.331Z,2.97
2022-08-23T22:45:34.138Z,2.80
2022-08-23T22:48:00.786Z,3.00
2022-08-23T22:50:27.332Z,3.28
2022-08-23T22:52:53.798Z,3.08
2022-08-23T22:55:21.466Z,3.15
2022-08-23T22:57:48.062Z,2.90
2022-08-23T23:00:16.078Z,3.20
2022-08-23T23:02:42.966Z,3.35
2022-08-23T23:05:09.460Z,2.88
2022-08-23T23:07:54.676Z,3.05
2022-08-23T23:10:21.162Z,3.03
2022-08-23T23:12:47.674Z,2.67
2022-08-23T23:15:14.288Z,3.00
2022-08-23T23:17:40.854Z,2.85
2022-08-23T23:20:26.690Z,2.95
2022-08-23T23:22:53.186Z,3.03
2022-08-23T23:25:19.964Z,2.55
2022-08-23T23:27:46.476Z,2.97
2022-08-23T23:30:13.472Z,3.15
2022-08-23T23:32:40.035Z,3.08
2022-08-23T23:35:10.435Z,2.67
2022-08-23T23:37:37.129Z,2.92
2022-08-23T23:40:05.231Z,2.92
2022-08-23T23:42:31.841Z,2.50
2022-08-23T23:44:58.468Z,3.03
2022-08-23T23:47:24.925Z,2.70
2022-08-23T23:49:51.470Z,3.33
2022-08-23T23:52:17.937Z,2.80
2022-08-23T23:54:44.444Z,2.83
2022-08-23T23:57:10.923Z,2.80
2022-08-23T23:59:37.546Z,3.17
